TimeMDT,TemperatureF,Dew PointF,Humidity,Sea Level PressureIn,VisibilityMPH,Wind Direction,Wind SpeedMPH,Gust SpeedMPH,PrecipitationIn,Events,Conditions,WindDirDegrees,DateUTC
12:56 AM,27.0,21.0,78,30.54,10.0,Calm,Calm,-,N/A,,Clear,0,2012-10-06 06:56:00
1:56 AM,25.0,19.9,81,30.53,10.0,South,4.6,-,N/A,,Clear,170,2012-10-06 07:56:00
2:56 AM,26.1,21.0,81,30.51,10.0,South,8.1,-,N/A,,Clear,190,2012-10-06 08:56:00
3:56 AM,26.1,19.9,78,30.50,10.0,SSW,8.1,-,N/A,,Clear,200,2012-10-06 09:56:00
4:56 AM,30.0,21.0,69,30.47,10.0,South,12.7,-,N/A,,Clear,180,2012-10-06 10:56:00
5:56 AM,28.0,21.0,75,30.45,10.0,South,10.4,-,N/A,,Clear,190,2012-10-06 11:56:00
6:56 AM,30.0,19.0,64,30.45,10.0,South,12.7,-,N/A,,Clear,190,2012-10-06 12:56:00
7:56 AM,27.0,19.0,72,30.44,10.0,South,11.5,-,N/A,,Clear,190,2012-10-06 13:56:00
8:56 AM,34.0,19.9,56,30.44,10.0,SSW,15.0,-,N/A,,Partly Cloudy,210,2012-10-06 14:56:00
9:56 AM,39.0,18.0,43,30.43,10.0,SSW,20.7,25.3,N/A,,Scattered Clouds,200,2012-10-06 15:56:00
10:56 AM,42.1,18.0,38,30.42,10.0,SSW,19.6,-,N/A,,Mostly Cloudy,210,2012-10-06 16:56:00
11:56 AM,46.9,19.0,33,30.40,10.0,SW,18.4,-,N/A,,Overcast,220,2012-10-06 17:56:00
1:56 PM,51.1,28.9,43,30.37,10.0,West,15.0,19.6,N/A,,Mostly Cloudy,280,2012-10-06 19:56:00
2:56 PM,50.0,32.0,50,30.37,10.0,West,12.7,21.9,N/A,,Overcast,260,2012-10-06 20:56:00
3:56 PM,50.0,32.0,50,30.36,10.0,West,13.8,-,0.00,,Overcast,270,2012-10-06 21:56:00
7:56 PM,43.0,35.1,74,30.35,10.0,SSW,11.5,-,0.00,,Mostly Cloudy,210,2012-10-07 01:56:00
8:56 PM,42.1,32.0,67,30.33,10.0,SSW,9.2,-,N/A,,Overcast,210,2012-10-07 02:56:00
9:56 PM,42.1,34.0,73,30.31,10.0,SSW,11.5,-,N/A,,Overcast,200,2012-10-07 03:56:00
10:56 PM,43.0,34.0,71,30.29,10.0,SW,10.4,-,N/A,,Clear,220,2012-10-07 04:56:00
11:56 PM,42.1,33.1,70,30.27,10.0,SW,9.2,-,N/A,,Partly Cloudy,220,2012-10-07 05:56:00